Time;durP1;ratioP1;P1;durP2;ratioP2;P2;SDS_P1;SDS_P2;PMS_P1;PMS_P2;Temp;Humidity;BMP_temperature;BMP_pressure;BME280_temperature;BME280_humidity;BME280_pressure;Samples;Min_cycle;Max_cycle;Signal;HPM_P1;HPM_P2
2021/12/31 00:02:25;;;;;;;3.67;2.35;;;;;;;;;;5116157;28;20023;-75
2021/12/31 00:04:51;;;;;;;3.53;2.72;;;;;;;;;;5116800;28;20401;-75
2021/12/31 00:07:18;;;;;;;4.35;2.90;;;;;;;;;;5097783;28;20063;-75
2021/12/31 00:09:44;;;;;;;3.10;2.40;;;;;;;;;;5116186;28;20020;-75
2021/12/31 00:12:10;;;;;;;3.40;2.63;;;;;;;;;;5116102;28;20110;-75
2021/12/31 00:14:37;;;;;;;3.35;2.88;;;;;;;;;;5116173;28;20024;-75
2021/12/31 00:17:04;;;;;;;2.90;2.42;;;;;;;;;;5116626;28;20026;-75
2021/12/31 00:19:32;;;;;;;3.78;2.63;;;;;;;;;;5116109;28;20023;-75
2021/12/31 00:22:02;;;;;;;2.65;2.40;;;;;;;;;;5116008;28;20030;-75
2021/12/31 00:24:28;;;;;;;3.65;2.50;;;;;;;;;;5115895;28;20023;-75
2021/12/31 00:26:54;;;;;;;2.90;2.13;;;;;;;;;;5116461;28;20023;-74
2021/12/31 00:29:20;;;;;;;2.83;2.47;;;;;;;;;;5115661;27;20066;-75
2021/12/31 00:31:46;;;;;;;3.00;2.40;;;;;;;;;;5097829;28;20055;-75
2021/12/31 00:34:12;;;;;;;2.47;2.00;;;;;;;;;;5115753;28;20022;-75
2021/12/31 00:36:44;;;;;;;3.65;2.28;;;;;;;;;;5115783;28;20105;-75
2021/12/31 00:39:11;;;;;;;2.78;2.25;;;;;;;;;;5115740;28;20106;-75
2021/12/31 00:41:37;;;;;;;3.38;2.05;;;;;;;;;;5115909;28;20498;-75
2021/12/31 00:44:03;;;;;;;2.75;2.20;;;;;;;;;;5115695;28;20043;-75
2021/12/31 00:46:30;;;;;;;4.53;2.40;;;;;;;;;;5115647;28;20064;-75
2021/12/31 00:48:57;;;;;;;2.55;1.98;;;;;;;;;;5115729;28;20023;-75
2021/12/31 00:51:24;;;;;;;2.80;2.20;;;;;;;;;;5115754;28;20130;-75
2021/12/31 00:53:50;;;;;;;2.38;1.88;;;;;;;;;;5115903;28;20023;-75
2021/12/31 00:56:17;;;;;;;3.60;1.83;;;;;;;;;;5115786;28;20051;-75
2021/12/31 00:58:43;;;;;;;2.63;2.25;;;;;;;;;;5115551;28;20494;-75
2021/12/31 01:01:16;;;;;;;2.40;1.90;;;;;;;;;;5114843;28;20098;-74
2021/12/31 01:03:42;;;;;;;4.53;2.10;;;;;;;;;;5115614;28;20061;-74
2021/12/31 01:06:08;;;;;;;2.75;2.03;;;;;;;;;;5115536;28;20035;-74
2021/12/31 01:08:35;;;;;;;2.58;1.98;;;;;;;;;;5114725;28;20028;-75
2021/12/31 01:11:01;;;;;;;2.83;2.08;;;;;;;;;;5115373;28;20019;-75
2021/12/31 01:13:35;;;;;;;2.45;2.00;;;;;;;;;;5115066;28;20024;-74
2021/12/31 01:16:03;;;;;;;3.80;2.15;;;;;;;;;;5115117;28;20020;-74
2021/12/31 01:21:18;;;;;;;3.08;2.10;;;;;;;;;;5115317;28;20119;-75
2021/12/31 01:23:44;;;;;;;3.10;2.20;;;;;;;;;;5114785;28;20024;-75
2021/12/31 01:26:11;;;;;;;2.25;1.70;;;;;;;;;;5114755;28;20020;-75
2021/12/31 01:28:37;;;;;;;2.42;1.95;;;;;;;;;;5114672;28;20044;-75
2021/12/31 01:31:03;;;;;;;3.25;2.13;;;;;;;;;;5096485;28;20470;-75
2021/12/31 01:33:30;;;;;;;3.47;2.25;;;;;;;;;;5114661;28;20157;-75
2021/12/31 01:35:56;;;;;;;3.28;2.17;;;;;;;;;;5114644;28;20024;-75
2021/12/31 01:38:23;;;;;;;2.65;1.90;;;;;;;;;;5114497;28;20399;-75
2021/12/31 01:40:49;;;;;;;3.67;2.00;;;;;;;;;;5114485;28;20492;-74
2021/12/31 01:43:17;;;;;;;2.78;1.90;;;;;;;;;;5114605;28;20020;-75
2021/12/31 01:45:46;;;;;;;2.28;1.92;;;;;;;;;;5114342;28;20033;-75
2021/12/31 01:48:28;;;;;;;2.95;2.15;;;;;;;;;;5114423;28;20031;-75
2021/12/31 01:50:54;;;;;;;3.17;2.33;;;;;;;;;;5114461;28;20034;-75
2021/12/31 01:53:26;;;;;;;2.78;2.00;;;;;;;;;;5114405;28;20015;-75
2021/12/31 01:55:53;;;;;;;2.45;2.03;;;;;;;;;;5114115;28;20032;-75
2021/12/31 01:58:21;;;;;;;2.70;1.92;;;;;;;;;;5114180;28;20028;-75
2021/12/31 02:00:48;;;;;;;2.17;1.90;;;;;;;;;;5114602;28;20031;-75
2021/12/31 02:03:14;;;;;;;3.05;2.05;;;;;;;;;;5114311;28;20111;-75
2021/12/31 02:05:40;;;;;;;3.55;2.40;;;;;;;;;;5114166;28;20035;-75
2021/12/31 02:08:06;;;;;;;2.50;2.03;;;;;;;;;;5114003;28;20544;-75
2021/12/31 02:10:32;;;;;;;2.47;2.00;;;;;;;;;;5113962;28;20032;-75
2021/12/31 02:12:58;;;;;;;2.50;1.92;;;;;;;;;;5113202;28;20170;-75
2021/12/31 02:15:26;;;;;;;1.90;1.70;;;;;;;;;;5113773;28;20019;-75
2021/12/31 02:17:53;;;;;;;1.67;1.48;;;;;;;;;;5114078;28;20031;-75
2021/12/31 02:20:20;;;;;;;2.47;1.90;;;;;;;;;;5114171;28;20401;-74
2021/12/31 02:23:38;;;;;;;2.15;1.90;;;;;;;;;;5113980;28;20031;-75
2021/12/31 02:25:37;;;;;;;2.90;1.75;;;;;;;;;;5084667;28;20077;-75
2021/12/31 02:28:04;;;;;;;2.30;1.67;;;;;;;;;;5093113;28;20133;-75
2021/12/31 02:30:30;;;;;;;2.08;1.70;;;;;;;;;;5093368;28;20017;-75
2021/12/31 02:32:56;;;;;;;2.47;1.98;;;;;;;;;;5093577;28;20372;-75
2021/12/31 02:35:22;;;;;;;2.05;1.80;;;;;;;;;;5093229;28;20516;-75
2021/12/31 02:37:48;;;;;;;2.58;1.70;;;;;;;;;;5093083;28;20028;-75
2021/12/31 02:40:16;;;;;;;3.35;1.80;;;;;;;;;;5092770;28;20024;-75
2021/12/31 02:42:42;;;;;;;1.60;1.50;;;;;;;;;;5113792;28;20390;-75
2021/12/31 02:45:09;;;;;;;4.13;1.85;;;;;;;;;;5095005;28;20027;-75
2021/12/31 02:47:37;;;;;;;2.60;1.65;;;;;;;;;;5113152;28;20050;-75
2021/12/31 02:50:05;;;;;;;2.75;1.77;;;;;;;;;;5113225;28;20019;-74
2021/12/31 02:52:31;;;;;;;2.83;1.70;;;;;;;;;;5113372;28;20091;-74
2021/12/31 02:54:59;;;;;;;2.08;1.77;;;;;;;;;;5094837;28;20051;-74
2021/12/31 02:57:25;;;;;;;1.83;1.50;;;;;;;;;;5112871;28;20032;-74
2021/12/31 02:59:52;;;;;;;3.83;1.60;;;;;;;;;;5113061;28;20028;-75
2021/12/31 03:02:24;;;;;;;1.52;1.42;;;;;;;;;;5113058;28;20534;-75
2021/12/31 03:04:51;;;;;;;2.28;1.83;;;;;;;;;;5113025;28;20035;-75
2021/12/31 03:07:17;;;;;;;2.42;1.92;;;;;;;;;;5112791;28;20059;-75
2021/12/31 03:09:46;;;;;;;2.90;1.58;;;;;;;;;;5112973;28;20020;-75
2021/12/31 03:12:13;;;;;;;2.33;1.50;;;;;;;;;;5112843;28;20103;-75
2021/12/31 03:14:40;;;;;;;2.20;1.52;;;;;;;;;;5112890;28;20391;-75
2021/12/31 03:17:07;;;;;;;2.53;1.77;;;;;;;;;;5112886;28;20504;-75
2021/12/31 03:19:33;;;;;;;2.67;1.67;;;;;;;;;;5112917;28;20050;-75
2021/12/31 03:21:59;;;;;;;2.30;1.60;;;;;;;;;;5112687;28;20031;-74
2021/12/31 03:24:25;;;;;;;2.17;1.83;;;;;;;;;;5112485;28;20383;-74
2021/12/31 03:26:51;;;;;;;2.53;1.75;;;;;;;;;;5094437;28;20030;-74
2021/12/31 03:29:18;;;;;;;2.00;1.67;;;;;;;;;;5112542;28;20047;-74
2021/12/31 03:31:44;;;;;;;2.88;1.83;;;;;;;;;;5112798;28;20020;-75
2021/12/31 03:34:14;;;;;;;2.13;1.60;;;;;;;;;;5094403;28;20025;-75
2021/12/31 03:36:41;;;;;;;2.00;1.70;;;;;;;;;;5112767;28;20030;-75
2021/12/31 03:39:07;;;;;;;2.58;1.50;;;;;;;;;;5112971;28;20390;-75
2021/12/31 03:41:33;;;;;;;2.17;1.58;;;;;;;;;;5112737;28;20421;-75
2021/12/31 03:43:59;;;;;;;2.10;1.65;;;;;;;;;;5112667;28;20081;-75
2021/12/31 03:46:26;;;;;;;2.08;1.80;;;;;;;;;;5112294;28;20020;-75
2021/12/31 03:48:52;;;;;;;2.38;1.60;;;;;;;;;;5113053;28;20548;-75
2021/12/31 03:51:18;;;;;;;2.35;1.52;;;;;;;;;;5112127;28;20494;-75
2021/12/31 03:53:44;;;;;;;2.35;1.60;;;;;;;;;;5112870;28;20432;-75
2021/12/31 03:56:10;;;;;;;2.70;1.60;;;;;;;;;;5112606;28;20031;-75
2021/12/31 03:58:36;;;;;;;1.80;1.55;;;;;;;;;;5112973;28;20036;-75
2021/12/31 04:01:02;;;;;;;1.90;1.52;;;;;;;;;;5112347;28;20050;-75
2021/12/31 04:03:28;;;;;;;2.25;1.60;;;;;;;;;;5112480;28;20058;-75
2021/12/31 04:05:55;;;;;;;1.88;1.33;;;;;;;;;;5112381;28;20028;-75
2021/12/31 04:08:21;;;;;;;1.70;1.42;;;;;;;;;;5112093;28;20490;-75
2021/12/31 04:10:47;;;;;;;2.38;1.55;;;;;;;;;;5112613;28;20020;-75
2021/12/31 04:13:13;;;;;;;2.00;1.38;;;;;;;;;;5112269;28;20024;-75
2021/12/31 04:15:39;;;;;;;1.80;1.60;;;;;;;;;;5112539;28;20478;-75
2021/12/31 04:18:05;;;;;;;2.35;1.60;;;;;;;;;;5112251;28;20027;-75
2021/12/31 04:20:38;;;;;;;2.10;1.50;;;;;;;;;;5112485;28;20098;-75
2021/12/31 04:23:10;;;;;;;1.67;1.33;;;;;;;;;;5112209;28;20019;-75
2021/12/31 04:25:37;;;;;;;3.83;1.58;;;;;;;;;;5093918;28;20059;-75
2021/12/31 04:28:03;;;;;;;2.25;1.50;;;;;;;;;;5112299;27;20503;-75
2021/12/31 04:30:29;;;;;;;2.58;1.50;;;;;;;;;;5112276;28;20095;-75
2021/12/31 04:32:55;;;;;;;1.77;1.50;;;;;;;;;;5112394;28;20490;-75
2021/12/31 04:35:22;;;;;;;1.55;1.38;;;;;;;;;;5113660;28;20023;-75
2021/12/31 04:37:48;;;;;;;1.85;1.50;;;;;;;;;;5115602;28;20035;-75
2021/12/31 04:40:14;;;;;;;1.75;1.40;;;;;;;;;;5115936;28;20027;-75
2021/12/31 04:42:42;;;;;;;1.60;1.20;;;;;;;;;;5115701;28;20028;-75
2021/12/31 04:45:09;;;;;;;2.40;1.70;;;;;;;;;;5115744;28;20062;-75
2021/12/31 04:47:35;;;;;;;1.60;1.40;;;;;;;;;;5115628;28;20674;-75
2021/12/31 04:50:01;;;;;;;1.48;1.38;;;;;;;;;;5115511;28;20120;-75
2021/12/31 04:52:27;;;;;;;1.50;1.20;;;;;;;;;;5115404;28;20084;-75
2021/12/31 04:54:53;;;;;;;1.63;1.50;;;;;;;;;;5115878;28;20059;-75
2021/12/31 04:57:23;;;;;;;1.42;1.17;;;;;;;;;;5115481;28;20020;-75
2021/12/31 04:59:49;;;;;;;1.83;1.50;;;;;;;;;;5116031;28;20088;-75
2021/12/31 05:02:15;;;;;;;2.75;1.60;;;;;;;;;;5111992;28;20019;-75
2021/12/31 05:04:41;;;;;;;1.77;1.30;;;;;;;;;;5114936;28;20024;-75
2021/12/31 05:07:07;;;;;;;1.50;1.25;;;;;;;;;;5115360;28;20043;-75
2021/12/31 05:09:33;;;;;;;2.45;1.50;;;;;;;;;;5114914;28;20023;-75
2021/12/31 05:11:59;;;;;;;2.03;1.30;;;;;;;;;;5115269;28;20020;-75
2021/12/31 05:14:25;;;;;;;1.60;1.10;;;;;;;;;;5115223;28;20107;-75
2021/12/31 05:16:51;;;;;;;2.20;1.50;;;;;;;;;;5115703;28;20020;-75
2021/12/31 05:19:18;;;;;;;2.08;1.55;;;;;;;;;;5114991;28;20042;-75
2021/12/31 05:21:44;;;;;;;1.92;1.40;;;;;;;;;;5115026;28;20073;-75
2021/12/31 05:24:10;;;;;;;1.85;1.42;;;;;;;;;;5114802;28;20031;-74
2021/12/31 05:26:36;;;;;;;2.13;1.50;;;;;;;;;;5115284;28;20020;-74
2021/12/31 05:29:02;;;;;;;1.85;1.23;;;;;;;;;;5114660;28;20548;-74
2021/12/31 05:31:29;;;;;;;1.60;1.17;;;;;;;;;;5114991;28;20016;-75
2021/12/31 05:33:55;;;;;;;2.88;1.63;;;;;;;;;;5096381;28;20409;-75
2021/12/31 05:36:21;;;;;;;3.38;1.23;;;;;;;;;;5115063;28;20019;-75
2021/12/31 05:38:47;;;;;;;4.28;1.55;;;;;;;;;;5114566;28;20033;-75
2021/12/31 05:41:13;;;;;;;1.50;1.00;;;;;;;;;;5096488;28;20150;-75
2021/12/31 05:43:39;;;;;;;2.10;1.58;;;;;;;;;;5114633;28;20039;-75
2021/12/31 05:46:06;;;;;;;2.20;1.20;;;;;;;;;;5114537;28;20375;-75
2021/12/31 05:48:32;;;;;;;4.05;1.77;;;;;;;;;;5114484;28;20035;-74
2021/12/31 05:50:58;;;;;;;1.38;1.27;;;;;;;;;;5115036;28;20437;-74
2021/12/31 05:53:24;;;;;;;2.28;1.25;;;;;;;;;;5114564;28;20479;-74
2021/12/31 05:55:50;;;;;;;1.85;1.42;;;;;;;;;;5114715;28;20051;-74
2021/12/31 05:58:16;;;;;;;1.73;1.23;;;;;;;;;;5114412;28;20509;-74
2021/12/31 06:00:43;;;;;;;2.92;1.50;;;;;;;;;;5114437;28;20106;-74
2021/12/31 06:03:09;;;;;;;2.05;1.50;;;;;;;;;;5114248;28;20077;-75
2021/12/31 06:05:36;;;;;;;1.60;1.33;;;;;;;;;;5114354;28;20020;-75
2021/12/31 06:08:02;;;;;;;1.70;1.40;;;;;;;;;;5114206;28;20036;-75
2021/12/31 06:10:28;;;;;;;2.55;1.00;;;;;;;;;;5113697;28;20083;-75
2021/12/31 06:12:59;;;;;;;2.25;1.30;;;;;;;;;;5113976;28;20023;-75
2021/12/31 06:15:27;;;;;;;2.33;1.40;;;;;;;;;;5095533;28;20023;-74
2021/12/31 06:17:53;;;;;;;2.85;1.25;;;;;;;;;;5114185;28;20542;-74
2021/12/31 06:20:19;;;;;;;1.73;1.40;;;;;;;;;;5113724;28;20020;-74
2021/12/31 06:22:45;;;;;;;2.17;1.33;;;;;;;;;;5114129;28;20043;-75
2021/12/31 06:25:11;;;;;;;1.55;1.30;;;;;;;;;;5113920;28;20024;-75
2021/12/31 06:27:37;;;;;;;2.72;1.38;;;;;;;;;;5113700;28;20047;-74
2021/12/31 06:30:04;;;;;;;2.75;1.65;;;;;;;;;;5095609;28;20026;-74
2021/12/31 06:32:31;;;;;;;2.10;1.60;;;;;;;;;;5113913;28;20023;-74
2021/12/31 06:34:57;;;;;;;1.65;1.48;;;;;;;;;;5113541;28;20024;-74
2021/12/31 06:37:23;;;;;;;2.30;1.60;;;;;;;;;;5113769;28;20020;-74
2021/12/31 06:39:49;;;;;;;2.10;1.80;;;;;;;;;;5113358;28;20448;-74
2021/12/31 06:42:15;;;;;;;2.63;1.33;;;;;;;;;;5113899;28;20027;-74
2021/12/31 06:44:41;;;;;;;2.22;1.55;;;;;;;;;;5113234;28;20055;-74
2021/12/31 06:47:07;;;;;;;1.88;1.48;;;;;;;;;;5095093;28;20565;-74
2021/12/31 06:49:34;;;;;;;2.95;1.95;;;;;;;;;;5113554;28;20034;-74
2021/12/31 06:52:00;;;;;;;2.03;1.60;;;;;;;;;;5113595;28;20567;-74
2021/12/31 06:54:26;;;;;;;2.20;1.67;;;;;;;;;;5113530;28;20581;-75
2021/12/31 06:56:53;;;;;;;2.80;1.60;;;;;;;;;;5095025;28;20050;-75
2021/12/31 06:59:19;;;;;;;2.42;1.67;;;;;;;;;;5113081;28;20097;-75
2021/12/31 07:01:45;;;;;;;1.83;1.30;;;;;;;;;;5113731;28;20032;-75
2021/12/31 07:04:11;;;;;;;1.75;1.40;;;;;;;;;;5113253;28;20022;-75
2021/12/31 07:06:37;;;;;;;2.15;1.60;;;;;;;;;;5094991;28;20034;-75
2021/12/31 07:09:03;;;;;;;2.55;1.48;;;;;;;;;;5112781;28;20031;-75
2021/12/31 07:11:29;;;;;;;2.38;1.50;;;;;;;;;;5094672;28;20163;-75
2021/12/31 07:13:56;;;;;;;2.10;1.40;;;;;;;;;;5113239;28;20023;-75
2021/12/31 07:16:22;;;;;;;1.88;1.38;;;;;;;;;;5112753;28;20024;-75
2021/12/31 07:18:48;;;;;;;3.58;1.30;;;;;;;;;;5113164;28;20494;-74
2021/12/31 07:21:14;;;;;;;2.63;1.50;;;;;;;;;;5112954;28;20060;-75
2021/12/31 07:23:40;;;;;;;2.50;1.58;;;;;;;;;;5094663;28;20055;-74
2021/12/31 07:26:08;;;;;;;2.40;1.75;;;;;;;;;;5112653;28;20028;-75
2021/12/31 07:28:34;;;;;;;3.33;1.70;;;;;;;;;;5112795;27;20061;-74
2021/12/31 07:31:00;;;;;;;2.30;1.55;;;;;;;;;;5112698;28;20062;-74
2021/12/31 07:33:26;;;;;;;1.67;1.40;;;;;;;;;;5112807;28;20023;-74
2021/12/31 07:35:53;;;;;;;2.67;1.75;;;;;;;;;;5112600;28;20072;-74
2021/12/31 07:38:48;;;;;;;3.30;1.98;;;;;;;;;;5112753;28;20031;-74
2021/12/31 07:41:07;;;;;;;2.33;1.50;;;;;;;;;;5111704;28;20028;-74
2021/12/31 07:43:33;;;;;;;2.80;1.67;;;;;;;;;;5112771;28;20031;-74
2021/12/31 07:45:59;;;;;;;2.22;1.73;;;;;;;;;;5112662;28;20490;-74
2021/12/31 07:48:25;;;;;;;2.65;1.63;;;;;;;;;;5094595;28;20027;-74
2021/12/31 07:50:52;;;;;;;1.67;1.40;;;;;;;;;;5112915;28;20024;-74
2021/12/31 07:53:18;;;;;;;2.55;1.70;;;;;;;;;;5112684;28;20020;-74
2021/12/31 07:55:44;;;;;;;3.33;2.15;;;;;;;;;;5112482;28;20058;-74
2021/12/31 07:58:11;;;;;;;2.58;2.10;;;;;;;;;;5094317;28;20027;-74
2021/12/31 08:00:37;;;;;;;2.25;1.45;;;;;;;;;;5112217;28;20038;-74
2021/12/31 08:03:03;;;;;;;3.10;2.00;;;;;;;;;;5112719;28;20024;-74
2021/12/31 08:05:30;;;;;;;4.40;1.75;;;;;;;;;;5094095;28;20028;-74
2021/12/31 08:07:57;;;;;;;4.25;2.28;;;;;;;;;;5112803;28;20432;-74
2021/12/31 08:10:23;;;;;;;2.72;2.17;;;;;;;;;;5113439;28;20024;-74
2021/12/31 08:12:49;;;;;;;2.70;1.70;;;;;;;;;;5115964;28;20015;-75
2021/12/31 08:15:15;;;;;;;2.53;1.80;;;;;;;;;;5116477;28;20032;-74
2021/12/31 08:17:41;;;;;;;2.50;1.88;;;;;;;;;;5116591;28;20028;-74
2021/12/31 08:20:08;;;;;;;3.70;2.05;;;;;;;;;;5116328;28;20032;-74
2021/12/31 08:22:34;;;;;;;2.20;1.92;;;;;;;;;;5116054;28;20152;-74
2021/12/31 08:25:00;;;;;;;2.92;2.10;;;;;;;;;;5116073;28;20089;-74
2021/12/31 08:27:26;;;;;;;2.83;1.95;;;;;;;;;;5115502;28;20044;-74
2021/12/31 08:29:52;;;;;;;3.17;2.00;;;;;;;;;;5097943;28;20114;-74
2021/12/31 08:32:18;;;;;;;3.45;2.15;;;;;;;;;;5115771;28;20016;-74
2021/12/31 08:34:44;;;;;;;4.25;2.60;;;;;;;;;;5115846;28;20110;-74
2021/12/31 08:37:10;;;;;;;3.20;2.13;;;;;;;;;;5115880;28;20019;-74
2021/12/31 08:39:37;;;;;;;2.55;2.30;;;;;;;;;;5116282;28;20492;-74
2021/12/31 08:42:03;;;;;;;5.40;2.50;;;;;;;;;;5097423;28;20394;-74
2021/12/31 08:44:29;;;;;;;3.95;2.13;;;;;;;;;;5116263;28;20460;-74
2021/12/31 08:46:55;;;;;;;3.90;2.30;;;;;;;;;;5115662;28;20023;-75
2021/12/31 08:49:23;;;;;;;3.10;2.25;;;;;;;;;;5115854;28;20106;-75
2021/12/31 08:51:49;;;;;;;2.67;1.75;;;;;;;;;;5115627;28;20018;-75
2021/12/31 08:54:16;;;;;;;3.08;2.20;;;;;;;;;;5116037;28;20389;-75
2021/12/31 08:56:43;;;;;;;3.50;2.15;;;;;;;;;;5115394;28;20027;-75
2021/12/31 08:59:09;;;;;;;3.03;2.10;;;;;;;;;;5115555;28;20034;-75
2021/12/31 09:01:35;;;;;;;6.63;2.60;;;;;;;;;;5115316;28;20540;-75
2021/12/31 09:04:01;;;;;;;3.50;2.15;;;;;;;;;;5115558;28;20029;-75
2021/12/31 09:06:27;;;;;;;3.97;2.47;;;;;;;;;;5115137;28;20031;-75
2021/12/31 09:08:53;;;;;;;5.40;2.53;;;;;;;;;;5115364;28;20034;-75
2021/12/31 09:11:19;;;;;;;5.30;2.55;;;;;;;;;;5115061;28;20023;-75
2021/12/31 09:13:47;;;;;;;4.50;2.80;;;;;;;;;;5115625;28;20106;-75
2021/12/31 09:16:13;;;;;;;6.65;3.38;;;;;;;;;;5115456;28;20024;-75
2021/12/31 09:18:39;;;;;;;6.07;2.70;;;;;;;;;;5115252;28;20077;-75
2021/12/31 09:21:05;;;;;;;5.75;2.97;;;;;;;;;;5114857;28;20032;-75
2021/12/31 09:23:31;;;;;;;4.22;2.33;;;;;;;;;;5115047;28;20481;-75
2021/12/31 09:25:58;;;;;;;6.03;2.63;;;;;;;;;;5114993;28;20023;-75
2021/12/31 09:28:25;;;;;;;3.55;2.25;;;;;;;;;;5114797;28;20039;-75
2021/12/31 09:30:51;;;;;;;5.90;2.75;;;;;;;;;;5115541;28;20031;-75
2021/12/31 09:33:17;;;;;;;3.90;2.33;;;;;;;;;;5115166;28;20034;-75
2021/12/31 09:35:43;;;;;;;3.13;2.30;;;;;;;;;;5114925;28;20024;-75
2021/12/31 09:38:09;;;;;;;4.25;2.22;;;;;;;;;;5114462;28;20065;-75
2021/12/31 09:40:36;;;;;;;4.38;2.20;;;;;;;;;;5114794;28;20026;-75
2021/12/31 09:43:04;;;;;;;4.50;2.28;;;;;;;;;;5114745;28;20028;-75
2021/12/31 09:45:33;;;;;;;4.15;2.42;;;;;;;;;;5114650;28;20020;-75
2021/12/31 09:48:00;;;;;;;3.33;1.98;;;;;;;;;;5114488;28;20081;-75
2021/12/31 09:50:26;;;;;;;3.58;2.22;;;;;;;;;;5114554;28;20069;-75
2021/12/31 09:52:54;;;;;;;4.72;2.10;;;;;;;;;;5114391;28;20024;-75
2021/12/31 09:55:35;;;;;;;3.85;2.30;;;;;;;;;;5096463;28;20512;-75
2021/12/31 09:58:01;;;;;;;4.20;2.13;;;;;;;;;;5114502;28;20039;-75
2021/12/31 10:00:27;;;;;;;2.72;1.77;;;;;;;;;;5114623;28;20063;-75
2021/12/31 10:03:12;;;;;;;8.27;4.93;;;;;;;;;;5114096;28;20058;-75
2021/12/31 10:05:41;;;;;;;6.97;3.83;;;;;;;;;;5095831;28;20020;-75
2021/12/31 10:08:20;;;;;;;51.65;28.80;;;;;;;;;;5113973;28;20032;-75
2021/12/31 10:11:05;;;;;;;46.42;25.35;;;;;;;;;;5113919;28;20073;-75
2021/12/31 10:13:32;;;;;;;35.38;18.20;;;;;;;;;;5113853;28;20030;-75
2021/12/31 10:15:58;;;;;;;60.60;31.25;;;;;;;;;;5114281;28;20050;-74
2021/12/31 10:18:34;;;;;;;35.67;18.75;;;;;;;;;;5113775;28;20430;-74
2021/12/31 10:21:01;;;;;;;58.28;31.40;;;;;;;;;;5114119;28;20512;-74
2021/12/31 10:23:27;;;;;;;54.15;29.20;;;;;;;;;;5113340;28;20462;-74
2021/12/31 10:26:13;;;;;;;57.63;31.40;;;;;;;;;;5114080;28;20028;-74
2021/12/31 10:28:56;;;;;;;57.72;33.55;;;;;;;;;;5113485;27;20475;-74
2021/12/31 10:31:22;;;;;;;62.20;33.37;;;;;;;;;;5113949;28;20446;-74
2021/12/31 10:33:49;;;;;;;56.17;31.45;;;;;;;;;;5112687;28;20066;-74
2021/12/31 10:36:35;;;;;;;55.70;30.70;;;;;;;;;;5113829;28;20030;-74
2021/12/31 10:39:14;;;;;;;54.15;27.52;;;;;;;;;;5113253;28;20023;-74
2021/12/31 10:41:41;;;;;;;45.95;27.48;;;;;;;;;;5113379;28;20028;-75
2021/12/31 10:44:07;;;;;;;45.75;25.10;;;;;;;;;;5094820;28;20028;-74
2021/12/31 10:46:33;;;;;;;43.88;24.92;;;;;;;;;;5113457;28;20444;-75
2021/12/31 10:49:06;;;;;;;41.55;23.40;;;;;;;;;;5094643;28;20038;-75
2021/12/31 10:51:40;;;;;;;44.75;24.45;;;;;;;;;;5113424;28;20406;-75
2021/12/31 10:54:15;;;;;;;40.90;23.90;;;;;;;;;;5094857;28;20041;-75
2021/12/31 10:56:41;;;;;;;46.22;24.27;;;;;;;;;;5113461;28;20020;-75
2021/12/31 10:59:07;;;;;;;39.67;21.88;;;;;;;;;;5112856;28;20036;-75
2021/12/31 11:01:33;;;;;;;36.80;20.95;;;;;;;;;;5113369;28;20077;-75
2021/12/31 11:04:00;;;;;;;33.67;20.15;;;;;;;;;;5109925;28;20103;-75
2021/12/31 11:06:26;;;;;;;38.17;20.40;;;;;;;;;;5113050;28;20020;-74
2021/12/31 11:08:54;;;;;;;37.08;20.13;;;;;;;;;;5112701;28;20027;-74
2021/12/31 11:11:21;;;;;;;35.40;19.17;;;;;;;;;;5113250;28;20012;-74
2021/12/31 11:13:48;;;;;;;35.58;18.95;;;;;;;;;;5112904;28;20559;-74
2021/12/31 11:16:14;;;;;;;32.53;18.35;;;;;;;;;;5113191;28;20028;-74
2021/12/31 11:18:40;;;;;;;31.92;18.05;;;;;;;;;;5112738;28;20028;-74
2021/12/31 11:21:09;;;;;;;37.30;18.77;;;;;;;;;;5112706;28;20019;-75
2021/12/31 11:23:36;;;;;;;28.65;16.55;;;;;;;;;;5094265;28;20027;-75
2021/12/31 11:26:06;;;;;;;32.28;17.05;;;;;;;;;;5094581;28;20073;-74
2021/12/31 11:28:33;;;;;;;31.65;17.77;;;;;;;;;;5112284;28;20051;-74
2021/12/31 11:31:18;;;;;;;27.33;15.63;;;;;;;;;;5112977;28;20020;-74
2021/12/31 11:34:10;;;;;;;28.88;14.70;;;;;;;;;;5112739;28;20032;-74
2021/12/31 11:36:39;;;;;;;24.17;13.50;;;;;;;;;;5113054;28;20035;-74
2021/12/31 11:39:15;;;;;;;24.60;13.88;;;;;;;;;;5112796;28;20448;-75
2021/12/31 11:41:42;;;;;;;22.55;12.55;;;;;;;;;;5112674;28;20430;-75
2021/12/31 11:44:09;;;;;;;26.17;14.80;;;;;;;;;;5095197;28;20023;-75
2021/12/31 11:46:40;;;;;;;27.05;14.77;;;;;;;;;;5116849;28;20456;-75
2021/12/31 11:49:11;;;;;;;21.88;12.07;;;;;;;;;;5116803;28;20031;-75
2021/12/31 11:51:39;;;;;;;21.27;11.93;;;;;;;;;;5117399;28;20042;-75
2021/12/31 11:54:06;;;;;;;21.67;12.25;;;;;;;;;;5116530;28;20023;-75
2021/12/31 11:56:47;;;;;;;21.15;12.43;;;;;;;;;;5117043;28;20069;-75
2021/12/31 11:59:13;;;;;;;20.50;12.10;;;;;;;;;;5116697;28;20083;-75
2021/12/31 12:01:40;;;;;;;20.92;12.18;;;;;;;;;;5098428;28;20553;-74
2021/12/31 12:04:19;;;;;;;19.42;11.57;;;;;;;;;;5116461;28;20027;-75
2021/12/31 12:06:51;;;;;;;18.08;11.05;;;;;;;;;;5116752;28;20501;-74
2021/12/31 12:09:17;;;;;;;19.50;11.38;;;;;;;;;;5116210;28;20465;-74
2021/12/31 12:12:02;;;;;;;20.83;11.02;;;;;;;;;;5117923;27;20378;-74
2021/12/31 12:14:29;;;;;;;19.15;10.40;;;;;;;;;;5116288;28;20031;-75
2021/12/31 12:16:58;;;;;;;19.83;10.60;;;;;;;;;;5116584;28;20482;-75
2021/12/31 12:19:43;;;;;;;19.52;9.80;;;;;;;;;;5116041;28;20092;-75
2021/12/31 12:22:09;;;;;;;15.13;9.95;;;;;;;;;;5116172;28;20026;-75
2021/12/31 12:24:35;;;;;;;18.00;9.80;;;;;;;;;;5115888;28;20085;-74
2021/12/31 12:27:02;;;;;;;16.52;10.25;;;;;;;;;;5116116;28;20048;-74
2021/12/31 12:29:28;;;;;;;15.65;9.10;;;;;;;;;;5115828;28;20049;-75
2021/12/31 12:32:16;;;;;;;14.48;8.57;;;;;;;;;;5116307;28;20011;-74
2021/12/31 12:34:42;;;;;;;15.27;9.45;;;;;;;;;;5097332;28;20575;-74
2021/12/31 12:37:09;;;;;;;14.02;8.18;;;;;;;;;;5116010;28;20026;-75
2021/12/31 12:39:35;;;;;;;13.75;8.48;;;;;;;;;;5097736;28;20024;-75
2021/12/31 12:42:01;;;;;;;11.73;7.78;;;;;;;;;;5115672;28;20073;-75
2021/12/31 12:44:28;;;;;;;12.10;7.60;;;;;;;;;;5115979;28;20054;-75
2021/12/31 12:46:55;;;;;;;12.35;7.88;;;;;;;;;;5097122;28;20023;-75
2021/12/31 12:49:24;;;;;;;14.00;7.80;;;;;;;;;;5115589;28;20107;-75
2021/12/31 12:51:50;;;;;;;15.35;7.93;;;;;;;;;;5115336;28;20012;-75
2021/12/31 12:54:21;;;;;;;12.30;7.85;;;;;;;;;;5097475;28;20517;-75
2021/12/31 12:56:48;;;;;;;12.27;7.35;;;;;;;;;;5114604;28;20100;-74
2021/12/31 12:59:21;;;;;;;12.02;7.22;;;;;;;;;;5115689;28;20506;-75
2021/12/31 13:01:47;;;;;;;;;;;;;;;;;;5116007;28;20031;-74
2021/12/31 13:04:15;;;;;;;11.27;7.57;;;;;;;;;;5115533;28;19908;-74
2021/12/31 13:06:44;;;;;;;11.95;7.45;;;;;;;;;;5115188;28;20028;-75
2021/12/31 13:09:16;;;;;;;13.63;7.75;;;;;;;;;;5115529;28;20024;-75
2021/12/31 13:11:46;;;;;;;12.40;6.97;;;;;;;;;;5115146;28;20023;-74
2021/12/31 13:14:14;;;;;;;11.55;6.90;;;;;;;;;;5097228;28;20031;-75
2021/12/31 13:16:41;;;;;;;12.60;7.43;;;;;;;;;;5115678;28;20424;-74
2021/12/31 13:19:09;;;;;;;12.32;7.47;;;;;;;;;;5115698;28;20024;-75
2021/12/31 13:21:35;;;;;;;10.02;6.93;;;;;;;;;;5114686;28;20023;-75
2021/12/31 13:24:02;;;;;;;11.95;6.75;;;;;;;;;;5114764;28;20019;-74
2021/12/31 13:26:28;;;;;;;10.57;6.75;;;;;;;;;;5114987;28;20051;-75
2021/12/31 13:28:58;;;;;;;9.05;6.05;;;;;;;;;;5114951;27;20048;-75
2021/12/31 13:31:50;;;;;;;10.60;6.55;;;;;;;;;;5115004;28;20390;-74
2021/12/31 13:34:22;;;;;;;11.27;6.82;;;;;;;;;;5110171;28;20063;-75
2021/12/31 13:36:49;;;;;;;8.88;6.00;;;;;;;;;;5115071;28;20106;-75
2021/12/31 13:39:16;;;;;;;7.35;5.22;;;;;;;;;;5115176;28;20028;-75
2021/12/31 13:41:49;;;;;;;9.90;5.75;;;;;;;;;;5114378;28;20023;-75
2021/12/31 13:44:18;;;;;;;10.43;6.25;;;;;;;;;;5114938;28;20032;-75
2021/12/31 13:46:45;;;;;;;8.02;5.57;;;;;;;;;;5114362;28;20027;-75
2021/12/31 13:49:19;;;;;;;8.50;5.82;;;;;;;;;;5096516;28;20051;-74
2021/12/31 13:51:47;;;;;;;8.43;5.53;;;;;;;;;;5114404;28;20015;-75
2021/12/31 13:54:16;;;;;;;8.45;5.72;;;;;;;;;;5114742;28;20030;-75
2021/12/31 13:56:46;;;;;;;10.40;5.88;;;;;;;;;;5114111;28;20023;-74
2021/12/31 13:59:34;;;;;;;7.82;5.25;;;;;;;;;;5114685;28;20039;-75
2021/12/31 14:02:06;;;;;;;9.10;5.53;;;;;;;;;;5114283;28;20491;-75
2021/12/31 14:04:34;;;;;;;7.38;4.93;;;;;;;;;;5114387;28;20451;-75
2021/12/31 14:07:18;;;;;;;7.18;4.95;;;;;;;;;;5113660;28;20023;-74
2021/12/31 14:09:47;;;;;;;7.63;5.10;;;;;;;;;;5113878;28;20023;-74
2021/12/31 14:12:14;;;;;;;5.82;4.63;;;;;;;;;;5113782;28;20024;-75
2021/12/31 14:14:43;;;;;;;8.98;5.40;;;;;;;;;;5114265;28;20030;-75
2021/12/31 14:17:10;;;;;;;6.60;4.82;;;;;;;;;;5113755;28;20016;-75
2021/12/31 14:19:38;;;;;;;7.38;4.88;;;;;;;;;;5114161;28;20023;-74
2021/12/31 14:22:04;;;;;;;6.65;5.20;;;;;;;;;;5095326;28;20035;-75
2021/12/31 14:24:31;;;;;;;6.43;4.72;;;;;;;;;;5113780;28;20030;-75
2021/12/31 14:26:57;;;;;;;9.32;5.00;;;;;;;;;;5113686;28;20024;-75
2021/12/31 14:29:23;;;;;;;7.60;4.97;;;;;;;;;;5113943;28;20035;-75
2021/12/31 14:31:49;;;;;;;7.28;4.88;;;;;;;;;;5113565;28;20020;-75
2021/12/31 14:34:16;;;;;;;6.05;4.43;;;;;;;;;;5113917;28;20437;-74
2021/12/31 14:37:04;;;;;;;5.93;4.40;;;;;;;;;;5113545;28;20099;-75
2021/12/31 14:39:33;;;;;;;6.78;4.32;;;;;;;;;;5113855;28;20453;-75
2021/12/31 14:41:59;;;;;;;7.80;4.53;;;;;;;;;;5113314;28;20135;-75
2021/12/31 14:44:25;;;;;;;7.40;4.55;;;;;;;;;;5113810;28;20027;-75
2021/12/31 14:46:53;;;;;;;7.28;4.40;;;;;;;;;;5113186;28;20489;-75